Time;durP1;ratioP1;P1;durP2;ratioP2;P2;SDS_P1;SDS_P2;PMS_P1;PMS_P2;Temp;Humidity;BMP_temperature;BMP_pressure;BME280_temperature;BME280_humidity;BME280_pressure;Samples;Min_cycle;Max_cycle;Signal;HPM_P1;HPM_P2
2022/06/07 00:00:13;;;;;;;5.87;5.27;;;;;;;;;;5027717;28;20764;-86
2022/06/07 00:02:39;;;;;;;5.40;4.90;;;;;;;;;;5028192;28;20949;-84
2022/06/07 00:05:06;;;;;;;6.33;4.70;;;;;;;;;;5029770;28;20542;-84
2022/06/07 00:07:32;;;;;;;5.10;4.60;;;;;;;;;;5046742;28;20415;-84
2022/06/07 00:09:58;;;;;;;5.23;4.73;;;;;;;;;;5046727;28;20411;-85
2022/06/07 00:12:24;;;;;;;6.20;5.60;;;;;;;;;;5034583;28;20423;-83
2022/06/07 00:14:50;;;;;;;5.23;4.73;;;;;;;;;;5032518;28;20404;-85
2022/06/07 00:17:17;;;;;;;6.17;4.87;;;;;;;;;;5032146;28;20407;-83
2022/06/07 00:19:43;;;;;;;5.60;5.00;;;;;;;;;;5047100;28;20416;-84
2022/06/07 00:22:10;;;;;;;9.17;4.90;;;;;;;;;;5032390;28;20446;-84
2022/06/07 00:24:36;;;;;;;6.27;5.30;;;;;;;;;;5031701;28;20458;-85
2022/06/07 00:27:03;;;;;;;12.60;5.17;;;;;;;;;;5032451;28;20437;-85
2022/06/07 00:29:29;;;;;;;7.10;6.10;;;;;;;;;;5031745;28;20415;-84
2022/06/07 00:31:55;;;;;;;6.93;5.73;;;;;;;;;;5031808;28;20435;-84
2022/06/07 00:34:21;;;;;;;7.70;5.40;;;;;;;;;;5031546;28;20910;-84
2022/06/07 00:36:47;;;;;;;5.73;5.07;;;;;;;;;;5031147;28;20915;-84
2022/06/07 00:39:13;;;;;;;7.60;5.60;;;;;;;;;;5030873;28;20408;-85
2022/06/07 00:41:40;;;;;;;6.20;5.60;;;;;;;;;;5030733;28;20825;-85
2022/06/07 00:44:27;;;;;;;8.03;5.40;;;;;;;;;;5031589;28;20399;-85
2022/06/07 00:46:54;;;;;;;8.40;6.37;;;;;;;;;;5031489;28;20384;-84
2022/06/07 00:49:21;;;;;;;9.03;5.97;;;;;;;;;;5031806;28;20399;-84
2022/06/07 00:51:47;;;;;;;13.70;8.90;;;;;;;;;;5030988;28;20422;-85
2022/06/07 00:54:24;;;;;;;8.63;6.17;;;;;;;;;;5031161;28;20427;-85
2022/06/07 00:56:50;;;;;;;10.27;6.60;;;;;;;;;;5030961;28;20406;-84
2022/06/07 00:59:16;;;;;;;8.77;6.80;;;;;;;;;;5031061;28;20451;-84
2022/06/07 01:01:43;;;;;;;7.60;6.33;;;;;;;;;;5031185;28;20906;-84
2022/06/07 01:04:09;;;;;;;7.57;6.30;;;;;;;;;;5030774;28;20418;-84
2022/06/07 01:12:05;;;;;;;15.10;10.33;;;;;;;;;;5030880;28;20422;-84
2022/06/07 01:14:31;;;;;;;8.57;7.60;;;;;;;;;;5030286;28;20403;-84
2022/06/07 01:16:58;;;;;;;16.73;8.60;;;;;;;;;;5029657;28;20793;-85
2022/06/07 01:19:24;;;;;;;13.23;9.77;;;;;;;;;;5030166;28;20422;-84
2022/06/07 01:21:50;;;;;;;9.70;8.73;;;;;;;;;;5029823;28;20435;-85
2022/06/07 01:24:17;;;;;;;20.53;9.57;;;;;;;;;;5031465;28;20434;-86
2022/06/07 01:26:43;;;;;;;19.53;8.90;;;;;;;;;;5037464;28;20441;-85
2022/06/07 01:29:10;;;;;;;15.20;9.47;;;;;;;;;;5049549;28;20399;-85
2022/06/07 01:31:36;;;;;;;18.33;10.03;;;;;;;;;;5048125;28;20461;-85
2022/06/07 01:34:03;;;;;;;29.70;12.40;;;;;;;;;;5046946;28;20489;-85
2022/06/07 01:36:30;;;;;;;15.80;12.10;;;;;;;;;;5062254;28;20413;-85
2022/06/07 01:41:56;;;;;;;15.70;11.63;;;;;;;;;;5045724;28;20449;-85
2022/06/07 01:44:26;;;;;;;21.73;13.97;;;;;;;;;;5048075;28;20445;-85
2022/06/07 01:46:53;;;;;;;20.83;14.33;;;;;;;;;;5047943;28;20427;-85
2022/06/07 01:49:19;;;;;;;21.17;12.97;;;;;;;;;;5047779;28;20490;-85
2022/06/07 01:51:46;;;;;;;22.30;13.83;;;;;;;;;;5049180;28;20422;-86
2022/06/07 01:54:13;;;;;;;17.30;13.60;;;;;;;;;;5076466;28;20409;-85
2022/06/07 01:56:39;;;;;;;16.00;12.30;;;;;;;;;;5036633;28;20465;-84
2022/06/07 01:59:06;;;;;;;15.43;11.43;;;;;;;;;;5037940;28;20406;-84
2022/06/07 02:01:33;;;;;;;19.40;13.23;;;;;;;;;;5040336;28;20428;-84
2022/06/07 02:03:59;;;;;;;16.60;11.70;;;;;;;;;;5039981;28;20402;-85
2022/06/07 02:06:25;;;;;;;15.73;11.50;;;;;;;;;;5039454;28;20473;-85
2022/06/07 02:08:51;;;;;;;15.70;11.83;;;;;;;;;;5044075;28;20410;-84
2022/06/07 02:11:19;;;;;;;17.43;13.27;;;;;;;;;;5039834;28;20486;-85
2022/06/07 02:13:46;;;;;;;14.83;10.97;;;;;;;;;;5044282;28;20414;-85
2022/06/07 02:16:12;;;;;;;14.70;11.00;;;;;;;;;;5041017;28;20803;-84
2022/06/07 02:18:38;;;;;;;10.43;8.80;;;;;;;;;;5039354;28;20406;-85
2022/06/07 02:21:05;;;;;;;14.63;9.30;;;;;;;;;;5039343;28;20429;-83
2022/06/07 02:23:31;;;;;;;12.17;10.23;;;;;;;;;;5039948;28;20480;-84
2022/06/07 02:26:00;;;;;;;13.77;10.00;;;;;;;;;;5040081;28;20457;-84
2022/06/07 02:28:29;;;;;;;19.33;11.57;;;;;;;;;;5054929;28;20432;-85
2022/06/07 02:30:55;;;;;;;14.40;11.67;;;;;;;;;;5040934;28;20433;-86
2022/06/07 02:33:22;;;;;;;13.60;10.20;;;;;;;;;;5041282;28;20493;-86
2022/06/07 02:35:48;;;;;;;16.13;11.30;;;;;;;;;;5038497;28;20409;-85
2022/06/07 02:38:14;;;;;;;14.90;11.93;;;;;;;;;;5034848;28;20501;-82
2022/06/07 02:40:41;;;;;;;14.23;10.57;;;;;;;;;;5035204;28;20446;-83
2022/06/07 02:43:07;;;;;;;14.53;11.23;;;;;;;;;;5036539;28;20391;-84
2022/06/07 02:45:33;;;;;;;14.30;11.43;;;;;;;;;;5037303;28;20461;-83
2022/06/07 02:48:00;;;;;;;14.27;11.60;;;;;;;;;;5037394;28;20402;-82
2022/06/07 02:50:26;;;;;;;12.80;10.70;;;;;;;;;;5037485;28;20948;-83
2022/06/07 02:52:52;;;;;;;14.67;11.00;;;;;;;;;;5053507;28;20437;-83
2022/06/07 02:55:18;;;;;;;16.33;12.00;;;;;;;;;;5038796;28;20426;-83
2022/06/07 02:57:44;;;;;;;14.43;10.50;;;;;;;;;;5038864;28;20406;-86
2022/06/07 03:00:13;;;;;;;17.13;12.37;;;;;;;;;;5053097;28;20418;-87
2022/06/07 03:02:39;;;;;;;14.90;11.40;;;;;;;;;;5026121;28;20471;-86
2022/06/07 03:05:05;;;;;;;15.20;11.33;;;;;;;;;;5018609;28;20459;-86
2022/06/07 03:07:31;;;;;;;15.40;9.70;;;;;;;;;;5018979;28;20412;-86
2022/06/07 03:09:57;;;;;;;12.77;9.27;;;;;;;;;;5019158;28;20445;-87
2022/06/07 03:12:23;;;;;;;11.00;8.00;;;;;;;;;;5019035;28;20450;-86
2022/06/07 03:14:49;;;;;;;10.27;7.67;;;;;;;;;;5020288;28;20426;-86
2022/06/07 03:17:15;;;;;;;8.93;7.23;;;;;;;;;;5021149;28;20450;-86
2022/06/07 03:19:41;;;;;;;9.70;8.43;;;;;;;;;;5025546;28;20406;-85
2022/06/07 03:22:07;;;;;;;10.03;7.93;;;;;;;;;;5029086;28;20470;-86
2022/06/07 03:24:34;;;;;;;9.30;8.27;;;;;;;;;;5027199;28;20455;-83
2022/06/07 03:27:01;;;;;;;9.10;8.13;;;;;;;;;;5027319;28;20407;-84
2022/06/07 03:29:27;;;;;;;7.53;6.70;;;;;;;;;;5026134;28;20577;-85
2022/06/07 03:31:53;;;;;;;9.07;6.30;;;;;;;;;;5026021;28;20438;-85
2022/06/07 03:34:19;;;;;;;7.13;4.67;;;;;;;;;;5026779;28;20395;-85
2022/06/07 03:36:45;;;;;;;9.13;7.20;;;;;;;;;;5026596;28;20399;-85
2022/06/07 03:39:11;;;;;;;6.63;5.33;;;;;;;;;;5025385;28;20418;-84
2022/06/07 03:41:37;;;;;;;9.47;7.33;;;;;;;;;;5030563;28;20501;-85
2022/06/07 03:44:04;;;;;;;7.33;6.10;;;;;;;;;;5031025;28;20510;-86
2022/06/07 03:46:32;;;;;;;5.57;5.07;;;;;;;;;;5030011;28;20451;-85
2022/06/07 03:48:59;;;;;;;5.07;4.57;;;;;;;;;;5030087;28;20426;-86
2022/06/07 03:51:26;;;;;;;3.93;3.20;;;;;;;;;;5045812;28;20514;-85
2022/06/07 03:53:53;;;;;;;4.70;3.60;;;;;;;;;;5030771;28;20406;-85
2022/06/07 03:56:21;;;;;;;5.93;4.80;;;;;;;;;;5030965;28;20403;-85
2022/06/07 03:58:48;;;;;;;4.57;4.13;;;;;;;;;;5030156;28;20407;-85
2022/06/07 04:01:15;;;;;;;6.90;4.83;;;;;;;;;;5030008;28;20434;-85
2022/06/07 04:03:45;;;;;;;5.40;4.33;;;;;;;;;;5030288;28;20783;-85
2022/06/07 04:06:20;;;;;;;5.77;5.10;;;;;;;;;;5030370;28;20447;-85
2022/06/07 04:08:46;;;;;;;6.80;4.50;;;;;;;;;;5030359;28;20401;-85
2022/06/07 04:11:13;;;;;;;8.80;5.40;;;;;;;;;;5029255;28;20422;-85
2022/06/07 04:13:39;;;;;;;5.83;4.83;;;;;;;;;;5030098;28;20411;-85
2022/06/07 04:16:10;;;;;;;5.80;4.73;;;;;;;;;;5030092;28;20418;-85
2022/06/07 04:18:36;;;;;;;8.33;5.80;;;;;;;;;;5030132;28;20407;-85
2022/06/07 04:21:02;;;;;;;7.03;4.23;;;;;;;;;;5029713;28;20461;-85
2022/06/07 04:23:28;;;;;;;4.57;4.10;;;;;;;;;;5030470;28;20407;-85
2022/06/07 04:25:54;;;;;;;6.47;4.13;;;;;;;;;;5029945;28;20965;-86
2022/06/07 04:28:20;;;;;;;4.53;3.63;;;;;;;;;;5029726;28;20479;-85
2022/06/07 04:30:47;;;;;;;6.53;4.47;;;;;;;;;;5029319;28;20491;-85
2022/06/07 04:33:17;;;;;;;5.33;4.20;;;;;;;;;;5029595;28;20400;-85
2022/06/07 04:35:44;;;;;;;5.47;4.70;;;;;;;;;;5030320;28;20434;-85
2022/06/07 04:38:10;;;;;;;8.47;4.67;;;;;;;;;;5046003;28;20411;-85
2022/06/07 04:40:38;;;;;;;6.40;5.00;;;;;;;;;;5030114;28;20819;-85
2022/06/07 04:43:04;;;;;;;5.00;4.27;;;;;;;;;;5030357;28;20430;-85
2022/06/07 04:45:31;;;;;;;4.43;3.83;;;;;;;;;;5030255;28;20462;-85
2022/06/07 04:47:58;;;;;;;6.13;4.67;;;;;;;;;;5029928;28;20514;-85
2022/06/07 04:50:24;;;;;;;5.17;4.67;;;;;;;;;;5029505;28;20411;-85
2022/06/07 04:52:50;;;;;;;6.47;4.03;;;;;;;;;;5027782;28;20418;-85
2022/06/07 04:55:16;;;;;;;5.50;3.43;;;;;;;;;;5028570;28;20412;-85
2022/06/07 04:57:42;;;;;;;4.90;3.53;;;;;;;;;;5043108;28;20777;-85
2022/06/07 05:00:09;;;;;;;3.30;3.00;;;;;;;;;;5027881;28;20411;-85
2022/06/07 05:02:35;;;;;;;6.10;3.53;;;;;;;;;;5028189;28;20895;-87
2022/06/07 05:05:02;;;;;;;4.13;3.73;;;;;;;;;;5027824;28;20538;-85
2022/06/07 05:07:28;;;;;;;3.87;3.17;;;;;;;;;;5027494;28;20427;-85
2022/06/07 05:09:54;;;;;;;5.47;2.90;;;;;;;;;;5027996;28;20408;-85
2022/06/07 05:12:23;;;;;;;4.23;2.60;;;;;;;;;;5028357;28;20423;-86
2022/06/07 05:14:49;;;;;;;3.90;3.30;;;;;;;;;;5027909;28;20402;-85
2022/06/07 05:17:16;;;;;;;12.53;3.37;;;;;;;;;;5028395;28;20408;-85
2022/06/07 05:19:42;;;;;;;3.53;2.50;;;;;;;;;;5028638;28;20477;-85
2022/06/07 05:22:08;;;;;;;3.83;3.47;;;;;;;;;;5027678;28;20431;-85
2022/06/07 05:24:34;;;;;;;3.50;3.17;;;;;;;;;;5027342;28;20509;-85
2022/06/07 05:27:01;;;;;;;3.30;3.00;;;;;;;;;;5027435;28;20431;-85
2022/06/07 05:29:46;;;;;;;5.57;3.03;;;;;;;;;;5026933;28;20395;-85
2022/06/07 05:32:13;;;;;;;3.17;2.30;;;;;;;;;;5029033;28;20411;-85
2022/06/07 05:34:39;;;;;;;2.63;2.43;;;;;;;;;;5031955;28;20391;-84
2022/06/07 05:37:05;;;;;;;4.83;3.07;;;;;;;;;;5026581;28;20414;-85
2022/06/07 05:39:31;;;;;;;6.13;3.20;;;;;;;;;;5025095;28;20545;-85
2022/06/07 05:41:58;;;;;;;7.10;3.83;;;;;;;;;;5025318;28;20451;-85
2022/06/07 05:44:25;;;;;;;3.87;3.50;;;;;;;;;;5040185;28;20425;-85
2022/06/07 05:46:52;;;;;;;4.53;3.73;;;;;;;;;;5025612;28;20435;-85
2022/06/07 05:49:18;;;;;;;4.77;3.50;;;;;;;;;;5040013;28;20903;-85
2022/06/07 05:51:45;;;;;;;11.60;3.80;;;;;;;;;;5024886;28;20451;-85
2022/06/07 05:54:12;;;;;;;4.63;4.10;;;;;;;;;;5040065;28;20435;-86
2022/06/07 05:56:38;;;;;;;4.83;3.70;;;;;;;;;;5025745;28;20404;-85
2022/06/07 05:59:07;;;;;;;5.77;4.07;;;;;;;;;;5025750;28;20434;-85
2022/06/07 06:01:34;;;;;;;6.67;4.00;;;;;;;;;;5025947;28;20431;-85
2022/06/07 06:04:03;;;;;;;40.90;31.70;;;;;;;;;;5027471;28;20778;-85
2022/06/07 06:06:29;;;;;;;4.33;3.90;;;;;;;;;;5026452;28;20447;-85
2022/06/07 06:11:41;;;;;;;5.00;3.90;;;;;;;;;;5022671;28;20478;-86
2022/06/07 06:14:07;;;;;;;8.80;4.70;;;;;;;;;;5022650;28;20415;-85
2022/06/07 06:16:33;;;;;;;5.30;4.27;;;;;;;;;;5022688;28;20490;-85
2022/06/07 06:19:00;;;;;;;4.23;3.67;;;;;;;;;;5019878;28;20403;-84
2022/06/07 06:21:28;;;;;;;5.37;4.60;;;;;;;;;;5017363;28;20947;-84
2022/06/07 06:23:57;;;;;;;5.10;4.17;;;;;;;;;;5018744;28;20418;-83
2022/06/07 06:26:23;;;;;;;6.33;4.13;;;;;;;;;;5023776;28;20454;-85
2022/06/07 06:28:49;;;;;;;3.80;3.30;;;;;;;;;;5019158;28;20414;-85
2022/06/07 06:31:16;;;;;;;7.53;4.07;;;;;;;;;;5020545;28;20949;-84
2022/06/07 06:33:46;;;;;;;5.47;4.17;;;;;;;;;;5019994;28;20438;-86
2022/06/07 06:36:14;;;;;;;3.57;3.00;;;;;;;;;;5023111;28;20752;-85
2022/06/07 06:38:40;;;;;;;5.30;3.60;;;;;;;;;;5023804;28;20773;-85
2022/06/07 06:41:14;;;;;;;4.33;3.30;;;;;;;;;;5023959;28;20446;-85
2022/06/07 06:43:41;;;;;;;4.00;3.30;;;;;;;;;;5024596;28;20418;-85
2022/06/07 06:46:07;;;;;;;8.93;3.67;;;;;;;;;;5023504;28;20462;-85
2022/06/07 06:48:34;;;;;;;3.90;3.20;;;;;;;;;;5038345;28;20421;-86
2022/06/07 06:51:01;;;;;;;4.50;3.53;;;;;;;;;;5018761;28;20473;-84
2022/06/07 06:53:27;;;;;;;4.37;3.97;;;;;;;;;;5016314;28;20414;-84
2022/06/07 06:55:55;;;;;;;4.77;2.90;;;;;;;;;;5016857;28;20533;-84
2022/06/07 06:58:21;;;;;;;3.83;2.90;;;;;;;;;;5018135;28;20406;-84
2022/06/07 07:00:48;;;;;;;4.13;3.73;;;;;;;;;;5018338;28;20486;-84
2022/06/07 07:03:14;;;;;;;5.30;3.63;;;;;;;;;;5034140;28;20419;-84
2022/06/07 07:05:40;;;;;;;5.07;3.50;;;;;;;;;;5019231;28;20450;-84
2022/06/07 07:08:06;;;;;;;4.90;3.67;;;;;;;;;;5019840;28;20445;-84
2022/06/07 07:10:32;;;;;;;9.13;3.80;;;;;;;;;;5021699;28;20428;-85
2022/06/07 07:12:58;;;;;;;6.73;4.70;;;;;;;;;;5022286;28;20399;-85
2022/06/07 07:15:24;;;;;;;6.20;4.73;;;;;;;;;;5021512;28;20407;-85
2022/06/07 07:17:50;;;;;;;6.43;4.80;;;;;;;;;;5022922;28;20545;-85
2022/06/07 07:20:16;;;;;;;10.40;5.43;;;;;;;;;;5020972;28;20413;-85
2022/06/07 07:22:42;;;;;;;7.40;4.70;;;;;;;;;;5020464;28;20450;-85
2022/06/07 07:25:09;;;;;;;5.97;4.50;;;;;;;;;;5020003;28;20529;-86
2022/06/07 07:27:35;;;;;;;5.90;4.17;;;;;;;;;;5022860;28;20411;-85
2022/06/07 07:30:01;;;;;;;4.73;4.00;;;;;;;;;;5022054;28;20436;-85
2022/06/07 07:32:27;;;;;;;8.87;4.47;;;;;;;;;;5016947;28;20794;-84
2022/06/07 07:34:54;;;;;;;8.57;5.90;;;;;;;;;;5017818;28;20890;-84
2022/06/07 07:37:20;;;;;;;4.77;4.10;;;;;;;;;;5017157;28;20404;-85
2022/06/07 07:39:46;;;;;;;7.20;5.60;;;;;;;;;;5036353;28;20433;-86
2022/06/07 07:42:12;;;;;;;6.93;5.17;;;;;;;;;;5038914;28;20508;-86
2022/06/07 07:44:38;;;;;;;5.73;4.33;;;;;;;;;;5043431;28;20425;-86
2022/06/07 07:47:04;;;;;;;5.70;4.43;;;;;;;;;;5056477;28;20777;-86
2022/06/07 07:49:32;;;;;;;8.83;5.73;;;;;;;;;;5028517;28;20434;-85
2022/06/07 07:51:58;;;;;;;6.57;5.50;;;;;;;;;;5040467;28;20436;-85
2022/06/07 07:54:24;;;;;;;11.80;5.83;;;;;;;;;;5042992;28;20402;-84
2022/06/07 07:56:56;;;;;;;16.53;12.73;;;;;;;;;;5041702;28;20410;-84
2022/06/07 07:59:24;;;;;;;3.57;3.27;;;;;;;;;;5042591;28;20457;-84
2022/06/07 08:01:50;;;;;;;4.07;3.67;;;;;;;;;;5025949;28;20430;-84
2022/06/07 08:04:16;;;;;;;7.87;5.67;;;;;;;;;;5044522;28;20450;-84
2022/06/07 08:06:46;;;;;;;6.33;5.03;;;;;;;;;;5057375;28;20531;-85
2022/06/07 08:09:12;;;;;;;5.77;5.27;;;;;;;;;;5061833;28;20415;-84
2022/06/07 08:11:39;;;;;;;4.93;4.40;;;;;;;;;;5066653;28;20430;-85
2022/06/07 08:14:07;;;;;;;4.33;3.93;;;;;;;;;;5051218;28;20427;-85
2022/06/07 08:16:33;;;;;;;4.97;4.33;;;;;;;;;;5025779;28;20419;-85
2022/06/07 08:18:59;;;;;;;6.93;5.20;;;;;;;;;;5038717;28;20453;-86
2022/06/07 08:21:28;;;;;;;9.40;5.33;;;;;;;;;;5026763;28;20493;-86
2022/06/07 08:23:55;;;;;;;6.40;5.50;;;;;;;;;;5062428;28;20437;-86
2022/06/07 08:26:21;;;;;;;6.57;5.40;;;;;;;;;;5043213;28;20460;-86
2022/06/07 08:28:47;;;;;;;4.57;4.10;;;;;;;;;;5051619;28;20422;-86
2022/06/07 08:31:15;;;;;;;4.90;4.40;;;;;;;;;;5044946;28;20473;-86
2022/06/07 08:39:11;;;;;;;7.60;4.63;;;;;;;;;;5064918;28;20397;-85
2022/06/07 08:41:43;;;;;;;7.87;5.63;;;;;;;;;;5039688;28;20535;-86
2022/06/07 08:44:13;;;;;;;7.13;5.30;;;;;;;;;;5047628;28;20479;-85
2022/06/07 08:46:39;;;;;;;5.50;4.30;;;;;;;;;;5061339;28;20457;-85
2022/06/07 08:49:06;;;;;;;5.20;4.60;;;;;;;;;;5046793;28;20500;-85
2022/06/07 08:51:44;;;;;;;4.97;4.57;;;;;;;;;;5055996;28;20520;-85
2022/06/07 08:54:17;;;;;;;5.50;4.83;;;;;;;;;;5060222;28;20429;-86
2022/06/07 08:56:44;;;;;;;4.00;3.60;;;;;;;;;;5064001;28;20398;-85
2022/06/07 08:59:29;;;;;;;5.03;4.50;;;;;;;;;;5034950;28;20427;-85
2022/06/07 09:02:07;;;;;;;3.60;3.17;;;;;;;;;;5040922;28;20430;-85
2022/06/07 09:04:39;;;;;;;5.20;3.30;;;;;;;;;;5047564;28;20443;-86
2022/06/07 09:07:16;;;;;;;4.30;3.90;;;;;;;;;;5029772;28;20431;-85
2022/06/07 09:12:33;;;;;;;4.83;4.00;;;;;;;;;;5027586;28;20443;-85
2022/06/07 09:14:59;;;;;;;5.53;4.30;;;;;;;;;;5025733;28;20422;-85
2022/06/07 09:17:30;;;;;;;4.67;4.10;;;;;;;;;;5041447;28;20400;-85
2022/06/07 09:20:01;;;;;;;4.27;3.73;;;;;;;;;;5025600;28;20415;-85
2022/06/07 09:22:37;;;;;;;3.70;3.40;;;;;;;;;;5053659;28;20435;-85
2022/06/07 09:25:09;;;;;;;4.90;4.40;;;;;;;;;;5041865;28;20969;-84
2022/06/07 09:27:35;;;;;;;4.40;4.00;;;;;;;;;;5043439;28;20401;-85
2022/06/07 09:30:09;;;;;;;5.43;4.90;;;;;;;;;;5044535;28;20394;-85
2022/06/07 09:32:38;;;;;;;6.63;4.90;;;;;;;;;;5042470;28;20427;-86
2022/06/07 09:35:10;;;;;;;7.73;6.37;;;;;;;;;;5050505;28;20421;-85
2022/06/07 09:37:47;;;;;;;6.53;5.37;;;;;;;;;;5043792;28;20455;-85
2022/06/07 09:40:34;;;;;;;6.50;5.90;;;;;;;;;;5047017;28;20429;-85
2022/06/07 09:43:22;;;;;;;6.73;5.47;;;;;;;;;;5024012;28;20414;-85
2022/06/07 09:46:07;;;;;;;6.47;5.37;;;;;;;;;;5021926;28;20454;-84
2022/06/07 09:48:56;;;;;;;7.37;6.67;;;;;;;;;;5038454;28;20483;-85
2022/06/07 09:51:35;;;;;;;6.67;5.97;;;;;;;;;;5021649;28;20434;-85
2022/06/07 09:54:03;;;;;;;5.43;4.97;;;;;;;;;;5056752;28;20394;-85
2022/06/07 09:56:59;;;;;;;5.13;4.63;;;;;;;;;;5056657;28;20411;-84
2022/06/07 09:59:28;;;;;;;4.50;4.00;;;;;;;;;;4991778;28;20412;-85
2022/06/07 10:01:58;;;;;;;6.90;4.40;;;;;;;;;;5057991;28;20437;-85
2022/06/07 10:04:24;;;;;;;4.73;4.23;;;;;;;;;;5057114;28;20406;-85
2022/06/07 10:07:14;;;;;;;8.77;4.27;;;;;;;;;;5041459;28;20434;-86
2022/06/07 10:09:41;;;;;;;4.70;3.90;;;;;;;;;;5055737;28;20390;-87
2022/06/07 10:12:25;;;;;;;4.97;4.13;;;;;;;;;;5029044;28;20495;-86
2022/06/07 10:15:01;;;;;;;5.30;4.67;;;;;;;;;;5021468;28;20402;-86
2022/06/07 10:17:45;;;;;;;5.07;4.57;;;;;;;;;;5040351;28;20921;-86
2022/06/07 10:23:18;;;;;;;5.50;4.90;;;;;;;;;;5029383;28;20479;-87
2022/06/07 10:26:03;;;;;;;8.43;5.20;;;;;;;;;;5021892;28;20457;-86
2022/06/07 10:28:40;;;;;;;9.37;5.40;;;;;;;;;;5021391;28;20414;-86
2022/06/07 10:31:38;;;;;;;5.87;4.53;;;;;;;;;;5023429;28;20984;-87
2022/06/07 10:34:30;;;;;;;4.90;4.20;;;;;;;;;;5021917;28;20471;-86
2022/06/07 10:37:29;;;;;;;7.97;4.90;;;;;;;;;;5015903;28;20426;-86
2022/06/07 10:39:57;;;;;;;6.23;4.50;;;;;;;;;;4990179;28;20418;-86
2022/06/07 10:42:46;;;;;;;7.03;4.73;;;;;;;;;;5038253;28;20453;-86
2022/06/07 10:45:21;;;;;;;4.83;4.33;;;;;;;;;;5053946;28;20450;-86
2022/06/07 10:47:50;;;;;;;4.80;3.90;;;;;;;;;;5052708;28;20986;-86
2022/06/07 10:50:25;;;;;;;8.60;4.50;;;;;;;;;;5020631;28;20834;-88
2022/06/07 10:53:00;;;;;;;5.10;3.47;;;;;;;;;;5019243;28;20407;-86
2022/06/07 10:55:40;;;;;;;6.33;4.47;;;;;;;;;;5021693;28;20477;-86
2022/06/07 10:58:19;;;;;;;5.17;4.33;;;;;;;;;;5037132;28;20411;-86
2022/06/07 11:00:54;;;;;;;4.73;3.80;;;;;;;;;;5036068;28;20442;-86
2022/06/07 11:03:26;;;;;;;3.80;3.03;;;;;;;;;;5046682;28;20427;-86
2022/06/07 11:11:59;;;;;;;4.77;4.07;;;;;;;;;;5031175;28;20485;-86
2022/06/07 11:14:34;;;;;;;4.63;4.10;;;;;;;;;;5047616;28;20418;-87
2022/06/07 11:17:40;;;;;;;3.97;3.57;;;;;;;;;;5024621;28;20410;-86
2022/06/07 11:20:20;;;;;;;6.17;3.40;;;;;;;;;;4977687;28;20461;-87
2022/06/07 11:26:14;;;;;;;4.80;3.60;;;;;;;;;;4998290;28;20460;-87
2022/06/07 11:28:44;;;;;;;4.93;3.70;;;;;;;;;;5020933;28;20404;-86
2022/06/07 11:31:28;;;;;;;3.53;3.20;;;;;;;;;;5020565;28;20438;-85
2022/06/07 11:33:57;;;;;;;5.47;2.80;;;;;;;;;;5049284;28;20430;-85
2022/06/07 11:36:40;;;;;;;3.70;2.67;;;;;;;;;;5057882;28;20406;-86
2022/06/07 11:39:24;;;;;;;3.37;2.13;;;;;;;;;;5040707;28;20436;-84
2022/06/07 11:41:52;;;;;;;6.90;6.10;;;;;;;;;;5056842;28;20438;-86
2022/06/07 11:44:28;;;;;;;3.20;2.60;;;;;;;;;;5036633;28;20419;-85
2022/06/07 11:46:57;;;;;;;3.57;2.90;;;;;;;;;;5038566;28;20415;-85
2022/06/07 11:49:23;;;;;;;2.67;2.43;;;;;;;;;;5020519;28;20435;-85
2022/06/07 11:51:54;;;;;;;5.83;2.67;;;;;;;;;;5019781;28;20426;-85
2022/06/07 11:54:40;;;;;;;9.43;4.77;;;;;;;;;;5037328;28;20482;-84
2022/06/07 11:57:25;;;;;;;4.93;4.00;;;;;;;;;;5035695;28;20406;-86
2022/06/07 12:00:10;;;;;;;4.43;2.60;;;;;;;;;;5036073;28;20481;-84
2022/06/07 12:02:42;;;;;;;3.10;2.40;;;;;;;;;;5039384;28;20769;-85
2022/06/07 12:05:28;;;;;;;2.90;1.90;;;;;;;;;;5022093;28;20458;-85
2022/06/07 12:07:59;;;;;;;2.53;1.80;;;;;;;;;;5040524;28;20395;-85
2022/06/07 12:10:28;;;;;;;3.10;1.70;;;;;;;;;;5020673;28;20423;-85
2022/06/07 12:13:03;;;;;;;2.90;2.23;;;;;;;;;;5041805;28;20422;-85
2022/06/07 12:15:32;;;;;;;3.03;1.80;;;;;;;;;;5058123;28;20479;-85
2022/06/07 12:18:03;;;;;;;3.80;2.30;;;;;;;;;;5041142;28;20755;-85
2022/06/07 12:20:35;;;;;;;2.30;1.90;;;;;;;;;;5041890;28;20449;-85
2022/06/07 12:23:27;;;;;;;2.77;1.67;;;;;;;;;;5040804;28;20436;-85
2022/06/07 12:25:55;;;;;;;2.13;1.50;;;;;;;;;;5035914;28;21001;-85
2022/06/07 12:28:25;;;;;;;2.10;1.40;;;;;;;;;;5040872;28;20410;-84
2022/06/07 12:30:54;;;;;;;2.93;1.30;;;;;;;;;;5042442;28;20429;-84
2022/06/07 12:33:24;;;;;;;2.17;1.30;;;;;;;;;;5041085;28;20405;-84
2022/06/07 12:36:01;;;;;;;1.93;1.30;;;;;;;;;;5040885;28;20411;-85
2022/06/07 12:38:28;;;;;;;2.53;1.60;;;;;;;;;;5041239;28;20411;-84
2022/06/07 12:40:56;;;;;;;2.20;1.27;;;;;;;;;;5042511;28;20544;-85
2022/06/07 12:43:28;;;;;;;1.90;1.30;;;;;;;;;;5040657;28;20573;-85
2022/06/07 12:45:59;;;;;;;1.60;1.10;;;;;;;;;;5040060;28;20446;-85
2022/06/07 12:48:27;;;;;;;1.87;1.00;;;;;;;;;;5039475;28;20877;-85
2022/06/07 12:50:54;;;;;;;2.30;1.07;;;;;;;;;;5039042;28;20433;-84
2022/06/07 12:53:24;;;;;;;2.20;1.17;;;;;;;;;;5039167;28;20899;-84
2022/06/07 12:55:56;;;;;;;3.90;1.07;;;;;;;;;;5039800;28;20913;-85
2022/06/07 12:58:23;;;;;;;2.40;1.50;;;;;;;;;;5022962;28;20461;-86
2022/06/07 13:00:49;;;;;;;1.70;0.97;;;;;;;;;;5039895;28;20426;-85
2022/06/07 13:03:33;;;;;;;2.33;1.10;;;;;;;;;;5039702;28;20410;-84
2022/06/07 13:06:02;;;;;;;2.20;1.10;;;;;;;;;;5040571;28;20833;-85
2022/06/07 13:08:33;;;;;;;1.90;1.20;;;;;;;;;;5040218;28;20410;-85
2022/06/07 13:10:59;;;;;;;1.50;1.00;;;;;;;;;;5041286;28;20415;-86
2022/06/07 13:13:32;;;;;;;1.67;0.97;;;;;;;;;;5035834;28;20414;-84
2022/06/07 13:16:02;;;;;;;2.17;1.20;;;;;;;;;;5029899;28;20415;-86
2022/06/07 13:18:33;;;;;;;1.40;1.00;;;;;;;;;;5027010;28;20414;-83
2022/06/07 13:21:05;;;;;;;2.00;1.20;;;;;;;;;;5037706;28;20489;-85
2022/06/07 13:23:37;;;;;;;1.97;1.20;;;;;;;;;;5038318;28;20424;-84
2022/06/07 13:26:09;;;;;;;1.93;1.20;;;;;;;;;;5021510;28;20451;-85
2022/06/07 13:28:36;;;;;;;2.97;1.20;;;;;;;;;;5040028;28;20406;-85
2022/06/07 13:31:02;;;;;;;1.83;1.20;;;;;;;;;;5021569;28;20441;-85
2022/06/07 13:33:30;;;;;;;1.67;1.00;;;;;;;;;;5035799;28;20414;-85
2022/06/07 13:36:06;;;;;;;2.10;1.40;;;;;;;;;;5038969;28;20941;-85
2022/06/07 13:38:36;;;;;;;3.20;1.00;;;;;;;;;;5037136;28;20406;-85
2022/06/07 13:41:22;;;;;;;2.30;1.20;;;;;;;;;;5054950;28;20454;-85
2022/06/07 13:43:53;;;;;;;2.23;1.33;;;;;;;;;;5022302;28;20399;-85
2022/06/07 13:46:23;;;;;;;2.50;1.30;;;;;;;;;;5019449;28;20534;-85
2022/06/07 13:54:29;;;;;;;2.60;1.13;;;;;;;;;;5036162;28;20417;-85
2022/06/07 13:56:55;;;;;;;1.90;1.17;;;;;;;;;;5037339;28;20415;-86
2022/06/07 13:59:21;;;;;;;3.40;0.97;;;;;;;;;;5029077;28;20453;-87
2022/06/07 14:01:48;;;;;;;1.70;1.17;;;;;;;;;;5015948;28;20797;-87
2022/06/07 14:04:17;;;;;;;1.80;0.93;;;;;;;;;;5017429;28;20494;-87
2022/06/07 14:06:44;;;;;;;1.80;1.07;;;;;;;;;;5016484;28;20546;-87
2022/06/07 14:09:30;;;;;;;2.63;0.93;;;;;;;;;;5025420;28;20914;-87
2022/06/07 14:11:59;;;;;;;2.50;1.10;;;;;;;;;;5035782;28;20509;-88
2022/06/07 14:14:28;;;;;;;2.80;1.20;;;;;;;;;;5032003;28;20457;-87
2022/06/07 14:17:00;;;;;;;2.07;1.20;;;;;;;;;;5031179;28;20489;-87
2022/06/07 14:19:31;;;;;;;4.40;1.10;;;;;;;;;;5034260;28;20423;-86
2022/06/07 14:21:59;;;;;;;2.63;1.00;;;;;;;;;;5020530;28;20427;-87
2022/06/07 14:24:26;;;;;;;1.60;1.00;;;;;;;;;;5034740;28;20423;-87
2022/06/07 14:26:53;;;;;;;1.60;0.93;;;;;;;;;;5017100;28;20451;-87
2022/06/07 14:29:19;;;;;;;2.17;1.20;;;;;;;;;;5016473;28;20411;-87
2022/06/07 14:31:46;;;;;;;6.40;1.87;;;;;;;;;;5022593;28;20438;-87
2022/06/07 14:34:17;;;;;;;2.80;1.40;;;;;;;;;;5049517;28;20537;-86
2022/06/07 14:36:43;;;;;;;1.60;1.00;;;;;;;;;;5026608;28;20411;-85
2022/06/07 14:39:14;;;;;;;2.20;1.40;;;;;;;;;;5025656;28;20942;-86
2022/06/07 14:41:39;;;;;;;3.63;1.27;;;;;;;;;;5031617;28;20468;-85
2022/06/07 14:44:05;;;;;;;3.73;1.30;;;;;;;;;;5037215;28;20481;-86
2022/06/07 14:46:33;;;;;;;2.00;1.17;;;;;;;;;;5047770;28;20538;-85
2022/06/07 14:49:07;;;;;;;2.10;1.10;;;;;;;;;;5028963;28;20414;-85
2022/06/07 14:54:25;;;;;;;1.87;1.07;;;;;;;;;;5033550;28;20514;-85
2022/06/07 14:56:51;;;;;;;2.50;1.30;;;;;;;;;;5023154;28;20958;-85
2022/06/07 14:59:21;;;;;;;3.53;1.83;;;;;;;;;;5046596;28;20418;-85
2022/06/07 15:01:49;;;;;;;2.03;1.50;;;;;;;;;;5026249;28;20855;-87
2022/06/07 15:04:17;;;;;;;2.50;1.17;;;;;;;;;;5041769;28;20418;-85
2022/06/07 15:06:49;;;;;;;2.33;1.00;;;;;;;;;;5052534;28;20457;-85
2022/06/07 15:09:16;;;;;;;2.73;1.30;;;;;;;;;;5041414;28;20408;-85
2022/06/07 15:11:45;;;;;;;2.70;1.83;;;;;;;;;;5017062;28;20458;-85
2022/06/07 15:14:17;;;;;;;2.27;1.30;;;;;;;;;;5016407;28;20503;-85
2022/06/07 15:16:46;;;;;;;4.60;1.43;;;;;;;;;;5018279;28;20470;-85
2022/06/07 15:19:15;;;;;;;3.40;1.20;;;;;;;;;;5030026;28;20421;-85
2022/06/07 15:21:43;;;;;;;5.60;1.33;;;;;;;;;;5036566;28;20449;-85
2022/06/07 15:24:13;;;;;;;2.23;0.97;;;;;;;;;;5057977;28;20414;-85
2022/06/07 15:26:44;;;;;;;1.73;1.03;;;;;;;;;;5052442;28;20450;-85
2022/06/07 15:29:11;;;;;;;2.47;1.20;;;;;;;;;;5052618;28;20421;-86
2022/06/07 15:31:37;;;;;;;1.60;1.03;;;;;;;;;;5037411;28;20556;-86